Scottish Airport Reports

Civil airfields updated at H+20 and H+50
RAF airfields updated at H+50 only

EGPD - Aberdeen
Distance from station: NNE 19mi, 31km
Updated: 16/12/2018 08:20
Clear
Clear
 Wind from SW
Wind: SW 17 mph , 28 km/h
Temperature: 3°C
Wind Chill: -3°C
Dew Point: 1°C
Humidity: 87%
Barometer: 991 hPa
Clouds: Clear
Visibility: 6 miles , 10 km
2018/12/16 08:20 EGPD 160820Z AUTO 22015KT 9999 NCD 03/01 Q0991
EGPN - Dundee
Distance from station: SW 41mi, 66km
Updated: 16/12/2018 08:20
Few Clouds
Few Clouds
 Wind from WNW
Wind: WNW 6 mph , 9 km/h
Temperature: 3°C
Wind Chill: 0°C
Dew Point: 2°C
Humidity: 93%
Barometer: 995 hPa
Clouds: Few Clouds
Visibility: 6 miles , 10 km
Cloud details: Few Clouds 2500 ft
2018/12/16 08:20 EGPN 160820Z 30005KT 9999 FEW025 03/02 Q0995
 
EGQS - RAF Lossiemouth
Distance from station: NNW 63mi, 102km
Updated: 16/12/2018 07:50
Light rain, Mostly cloudy
Light rain, Mostly cloudy
 Wind from WSW
Wind: WSW 24 mph , 39 km/h
Temperature: 5°C
Wind Chill: -1°C
Dew Point: 2°C
Humidity: 81%
Barometer: 989 hPa
Summary: Light rain
Clouds: Mostly cloudy
Visibility: 6 miles , 10 km
Cloud details: Few Clouds 1600 ft
Mostly cloudy 4000 ft
Mostly cloudy 6500 ft
2018/12/16 07:50 EGQS 160750Z 25021KT 9999 -RA FEW016 BKN040 BKN065 05/02 Q0989 BLU NOSIG
EGPE - Inverness
Distance from station: WNW 73mi, 117km
Updated: 16/12/2018 08:20
Few Clouds
Few Clouds
 Wind from SW
Wind: SW 23 mph , 37 km/h
Temperature: 4°C
Wind Chill: -2°C
Dew Point: 2°C
Humidity: 87%
Barometer: 991 hPa
Clouds: Few Clouds
Visibility: 6 miles , 10 km
Cloud details: Few Clouds 2800 ft
2018/12/16 08:20 EGPE 160820Z 23020KT 9999 FEW028 04/02 Q0991
 
EGPH - Edinburgh
Distance from station: SSW 77mi, 125km
Updated: 16/12/2018 08:20
Light rain, Partly cloudy
Light rain, Partly cloudy
 Wind from SW
Wind: SW 7 mph , 11 km/h
Temperature: 4°C
Wind Chill: 1°C
Dew Point: 3°C
Humidity: 93%
Barometer: 996 hPa
Summary: Light rain
Clouds: Partly cloudy
Visibility: 6 miles , 10 km
Cloud details: Few Clouds 1400 ft
Partly cloudy 2100 ft
2018/12/16 08:20 EGPH 160820Z 22006KT 9999 -RA FEW014 SCT021 04/03 Q0996
EGPC - Wick
Distance from station: NNW 107mi, 172km
Updated: 16/12/2018 08:20
Light rain, Mostly cloudy
Light rain, Mostly cloudy
 Wind from SW
Wind: SW 7 mph , 11 km/h
Temperature: 5°C
Wind Chill: 2°C
Dew Point: 2°C
Humidity: 81%
Barometer: 987 hPa
Summary: Light rain
Clouds: Mostly cloudy
Visibility: 6 miles , 10 km
Cloud details: Few Clouds 3700 ft
Mostly cloudy 4600 ft
2018/12/16 08:20 EGPC 160820Z AUTO 23006KT 9999 -RA FEW037/// BKN046/// 05/02 Q0987
 
EGPF - Glasgow
Distance from station: SW 107mi, 172km
Updated: 16/12/2018 08:20
Mostly cloudy
Mostly cloudy
 Wind from SSW
Wind: SSW 10 mph , 17 km/h
Temperature: 5°C
Wind Chill: 2°C
Dew Point: 3°C
Humidity: 87%
Barometer: 996 hPa
Clouds: Mostly cloudy
Visibility: 6 miles , 10 km
Cloud details: Partly cloudy 3100 ft
Mostly cloudy 4000 ft
2018/12/16 08:20 EGPF 160820Z AUTO 21009KT 9999 SCT031 BKN040 05/03 Q0996
EGPK - Prestwick
Distance from station: SW 130mi, 209km
Updated: 16/12/2018 08:20
Partly cloudy
Partly cloudy
 Wind from S
Wind: S 13 mph , 20 km/h
Temperature: 6°C
Wind Chill: 2°C
Dew Point: 4°C
Humidity: 87%
Barometer: 997 hPa
Clouds: Partly cloudy
Visibility: 6 miles , 10 km
Cloud details: Partly cloudy 3500 ft
2018/12/16 08:20 EGPK 160820Z 17011KT 9999 SCT035 06/04 Q0997
 
EGPA - Kirkwall, Orkney
Distance from station: N 140mi, 225km
Updated: 16/12/2018 08:20
Nearby showers, Mostly cloudy
Nearby showers, Mostly cloudy
 Wind from S
Wind: S 15 mph , 24 km/h
Temperature: 7°C
Wind Chill: 3°C
Dew Point: 5°C
Humidity: 87%
Barometer: 987 hPa
Summary: Nearby Showers
Clouds: Mostly cloudy
Visibility: 6 miles , 9 km
Cloud details: Few Clouds 800 ft
Partly cloudy 1000 ft
Mostly cloudy 1700 ft
2018/12/16 08:20 EGPA 160820Z 18013KT 9000 VCSH FEW008 SCT010 BKN017 07/05 Q0987
EGPO - Stornoway, Outer Hebrides
Distance from station: WNW 169mi, 273km
Updated: 16/12/2018 08:20
Mostly cloudy
Mostly cloudy
 Wind from W
Wind: W 10 mph , 17 km/h
Temperature: 5°C
Wind Chill: 2°C
Dew Point: 3°C
Humidity: 87%
Barometer: 989 hPa
Clouds: Mostly cloudy
Visibility: 6 miles , 10 km
Cloud details: Few Clouds 2700 ft
Partly cloudy 3400 ft
Mostly cloudy 4500 ft
2018/12/16 08:20 EGPO 160820Z AUTO 27009KT 9999 FEW027/// SCT034/// BKN045/// 05/03 Q0989
 
EGPI - Islay, Inner Hebrides
Distance from station: WSW 172mi, 276km
Updated: 16/12/2018 07:50
Few Clouds
Few Clouds
 Wind from SW
Wind: SW 20 mph , 31 km/h
Temperature: 7°C
Wind Chill: 3°C
Dew Point: 5°C
Humidity: 87%
Barometer: 995 hPa
Clouds: Few Clouds
Visibility: 6 miles , 10 km
Cloud details: Few Clouds 1600 ft
2018/12/16 07:50 EGPI 160750Z AUTO 22017KT 9999 FEW016/// 07/05 Q0995
EGPU - Tiree, Inner Hebrides
Distance from station: W 172mi, 276km
Updated: 16/12/2018 07:50
Clear
Clear
 Wind from SW
Wind: SW 14 mph , 22 km/h
Temperature: 7°C
Wind Chill: 4°C
Dew Point: 3°C
Humidity: 76%
Barometer: 992 hPa
Clouds: Clear
Visibility: 6 miles , 10 km
2018/12/16 07:50 EGPU 160750Z AUTO 23012KT 9999 NCD 07/03 Q0992
 
EGPB - Sumburgh, Shetland
Distance from station: NNE 208mi, 332km
Updated: 16/12/2018 08:20
Overcast
Overcast
 Wind from SE
Wind: SE 39 mph , 63 km/h, Gust: 56 mph , 91 km/h
Temperature: 6°C
Wind Chill: -1°C
Dew Point: 3°C
Humidity: 81%
Barometer: 993 hPa
Clouds: Overcast
Visibility: 6 miles , 10 km
Cloud details: Overcast 1100 ft
2018/12/16 08:20 EGPB 160820Z AUTO 14034G49KT 9999 OVC011/// 06/03 Q0993
EGPM - Scatsa, Shetland
Distance from station: NNE 245mi, 392km
Updated: 16/12/2018 08:20
Overcast
Overcast
 Wind from SE
Wind: SE 37 mph , 59 km/h, Gust: 55 mph , 89 km/h
Temperature: 6°C
Wind Chill: 0°C
Dew Point: 3°C
Humidity: 81%
Barometer: 994 hPa
Clouds: Overcast
Visibility: 6 miles , 10 km
Cloud details: Mostly cloudy 1200 ft
Overcast 2700 ft
2018/12/16 08:20 EGPM 160820Z AUTO 13032G48KT 100V160 9999 BKN012/// OVC027/// 06/03 Q0994
-->